createdAt,value
2022-08-09T00:00:00.492Z,2.83
2022-08-09T00:01:15.568Z,2.92
2022-08-09T00:02:18.526Z,2.88
2022-08-09T00:04:06.166Z,2.83
2022-08-09T00:04:43.182Z,2.72
2022-08-09T00:06:17.348Z,2.80
2022-08-09T00:07:23.730Z,2.53
2022-08-09T00:08:32.655Z,2.60
2022-08-09T00:09:34.843Z,2.35
2022-08-09T00:10:39.900Z,2.50
2022-08-09T00:12:04.010Z,2.75
2022-08-09T00:13:03.831Z,2.72
2022-08-09T00:14:06.986Z,2.67
2022-08-09T00:15:14.587Z,2.83
2022-08-09T00:16:17.815Z,2.80
2022-08-09T00:18:05.675Z,2.72
2022-08-09T00:18:50.351Z,2.45
2022-08-09T00:19:52.200Z,2.58
2022-08-09T00:20:56.384Z,2.33
2022-08-09T00:21:59.970Z,2.45
2022-08-09T00:23:53.805Z,2.60
2022-08-09T00:24:27.654Z,2.83
2022-08-09T00:25:32.937Z,2.50
2022-08-09T00:26:35.559Z,2.67
2022-08-09T00:27:43.193Z,2.38
2022-08-09T00:28:52.637Z,2.70
2022-08-09T00:30:24.476Z,2.40
2022-08-09T00:31:56.763Z,2.45
2022-08-09T00:32:39.104Z,2.83
2022-08-09T00:33:51.156Z,2.63
2022-08-09T00:34:53.542Z,2.00
2022-08-09T00:35:56.056Z,2.20
2022-08-09T00:36:57.840Z,2.65
2022-08-09T00:38:00.701Z,2.40
2022-08-09T00:39:04.895Z,2.60
2022-08-09T00:40:12.838Z,2.47
2022-08-09T00:44:13.138Z,2.75
2022-08-09T00:44:14.088Z,2.58
2022-08-09T00:44:14.248Z,2.35
2022-08-09T00:45:26.483Z,2.45
2022-08-09T00:46:45.375Z,2.30
2022-08-09T00:47:50.080Z,2.72
2022-08-09T00:48:56.164Z,2.60
2022-08-09T00:49:58.819Z,2.58
2022-08-09T00:51:10.413Z,2.42
2022-08-09T00:52:15.940Z,2.30
2022-08-09T00:53:24.038Z,2.72
2022-08-09T00:54:35.401Z,2.88
2022-08-09T00:56:04.538Z,2.05
2022-08-09T00:57:01.175Z,2.22
2022-08-09T00:58:03.235Z,2.70
2022-08-09T00:59:08.138Z,2.30
2022-08-09T01:00:21.411Z,2.42
2022-08-09T01:01:45.113Z,2.38
2022-08-09T01:02:50.706Z,2.90
2022-08-09T01:03:59.377Z,2.33
2022-08-09T01:05:53.540Z,2.83
2022-08-09T01:07:03.639Z,3.20
2022-08-09T01:08:13.773Z,3.08
2022-08-09T01:09:20.812Z,3.28
2022-08-09T01:10:41.385Z,3.10
2022-08-09T01:12:01.220Z,2.70
2022-08-09T01:13:09.166Z,3.25
2022-08-09T01:14:20.798Z,3.10
2022-08-09T01:15:27.606Z,3.10
2022-08-09T01:16:36.911Z,3.25
2022-08-09T01:17:45.624Z,3.13
2022-08-09T01:19:01.991Z,3.25
2022-08-09T01:20:30.734Z,3.90
2022-08-09T01:21:51.238Z,3.10
2022-08-09T01:24:02.179Z,3.50
2022-08-09T01:24:52.435Z,3.67
2022-08-09T01:26:15.780Z,3.78
2022-08-09T01:27:20.818Z,3.58
2022-08-09T01:28:26.056Z,3.40
2022-08-09T01:29:41.349Z,3.92
2022-08-09T01:31:01.195Z,3.60
2022-08-09T01:32:31.603Z,3.85
2022-08-09T01:33:33.247Z,3.47
2022-08-09T01:34:38.359Z,3.53
2022-08-09T01:36:12.131Z,3.90
2022-08-09T01:37:21.921Z,3.97
2022-08-09T01:38:46.334Z,4.03
2022-08-09T01:39:50.876Z,3.35
2022-08-09T01:41:05.156Z,3.78
2022-08-09T01:42:10.955Z,3.88
2022-08-09T01:43:14.015Z,3.70
2022-08-09T01:44:17.776Z,3.95
2022-08-09T01:45:22.770Z,3.42
2022-08-09T01:46:40.180Z,3.70
2022-08-09T01:47:46.169Z,4.13
2022-08-09T01:48:53.940Z,3.63
2022-08-09T01:49:58.026Z,3.80
2022-08-09T01:51:00.550Z,4.15
2022-08-09T01:52:09.225Z,3.72
2022-08-09T01:53:19.201Z,3.53
2022-08-09T01:54:28.044Z,3.42
2022-08-09T01:55:35.766Z,3.47
2022-08-09T01:56:43.117Z,3.47
2022-08-09T01:57:53.105Z,3.13
2022-08-09T01:58:57.746Z,3.60
2022-08-09T02:00:19.126Z,4.10
2022-08-09T02:01:58.497Z,3.53
2022-08-09T02:02:51.677Z,3.45
2022-08-09T02:03:57.278Z,3.58
2022-08-09T02:05:05.439Z,3.78
2022-08-09T02:06:16.802Z,3.97
2022-08-09T02:08:38.899Z,3.90
2022-08-09T02:08:58.525Z,3.65
2022-08-09T02:10:05.436Z,3.53
2022-08-09T02:11:16.823Z,3.47
2022-08-09T02:12:22.612Z,3.28
2022-08-09T02:13:37.675Z,3.22
2022-08-09T02:14:44.151Z,3.35
2022-08-09T02:15:50.373Z,3.92
2022-08-09T02:17:14.799Z,3.25
2022-08-09T02:18:20.644Z,3.40
2022-08-09T02:19:24.036Z,3.50
2022-08-09T02:20:45.284Z,3.40
2022-08-09T02:21:55.681Z,3.33
2022-08-09T02:23:09.063Z,3.03
2022-08-09T02:24:25.785Z,3.20
2022-08-09T02:25:33.214Z,3.78
2022-08-09T02:26:47.548Z,3.17
2022-08-09T02:28:04.037Z,3.28
2022-08-09T02:29:31.338Z,2.95
2022-08-09T02:30:42.365Z,3.22
2022-08-09T02:31:47.504Z,2.83
2022-08-09T02:32:51.285Z,3.20
2022-08-09T02:34:07.393Z,3.42
2022-08-09T02:35:46.350Z,2.88
2022-08-09T02:36:49.046Z,3.00
2022-08-09T02:38:00.117Z,2.70
2022-08-09T02:39:14.522Z,2.90
2022-08-09T02:40:26.940Z,2.88
2022-08-09T02:42:04.028Z,2.88
2022-08-09T02:43:08.853Z,3.00
2022-08-09T02:44:29.129Z,3.08
2022-08-09T02:45:35.603Z,2.67
2022-08-09T02:46:40.259Z,2.97
2022-08-09T02:47:57.985Z,2.75
2022-08-09T02:49:05.885Z,2.72
2022-08-09T02:50:19.977Z,2.88
2022-08-09T02:51:28.235Z,2.40
2022-08-09T02:52:55.600Z,2.63
2022-08-09T02:54:01.252Z,2.60
2022-08-09T02:55:20.205Z,2.72
2022-08-09T02:56:25.761Z,2.88
2022-08-09T02:57:40.501Z,2.33
2022-08-09T02:58:55.651Z,2.75
2022-08-09T03:00:21.165Z,2.97
2022-08-09T03:01:29.376Z,2.88
2022-08-09T03:02:59.975Z,2.83
2022-08-09T03:04:17.940Z,2.47
2022-08-09T03:05:21.947Z,2.90
2022-08-09T03:06:27.345Z,2.60
2022-08-09T03:07:31.035Z,2.90
2022-08-09T03:08:38.087Z,2.50
2022-08-09T03:09:42.659Z,2.30
2022-08-09T03:10:46.401Z,2.20
2022-08-09T03:12:10.399Z,2.53
2022-08-09T03:13:15.802Z,2.45
2022-08-09T03:14:19.787Z,2.50
2022-08-09T03:16:04.666Z,2.97
2022-08-09T03:16:54.133Z,2.30
2022-08-09T03:17:58.699Z,2.63
2022-08-09T03:19:02.116Z,2.60
2022-08-09T03:20:11.460Z,2.40
2022-08-09T03:21:17.168Z,3.08
2022-08-09T03:22:25.724Z,3.00
2022-08-09T03:23:32.881Z,2.50
2022-08-09T03:24:42.670Z,2.97
2022-08-09T03:25:58.724Z,2.70
2022-08-09T03:27:08.225Z,2.50
2022-08-09T03:28:11.422Z,3.17
2022-08-09T03:29:22.626Z,2.53
2022-08-09T03:30:29.670Z,2.40
2022-08-09T03:31:42.343Z,2.38
2022-08-09T03:32:54.477Z,2.90
2022-08-09T03:33:58.400Z,2.47
2022-08-09T03:35:00.784Z,2.53
2022-08-09T03:36:13.892Z,2.90
2022-08-09T03:37:55.628Z,2.38
2022-08-09T03:38:43.474Z,2.55
2022-08-09T03:39:48.690Z,2.40
2022-08-09T03:40:58.319Z,2.25
2022-08-09T03:42:06.874Z,2.42
2022-08-09T03:43:09.076Z,2.30
2022-08-09T03:44:13.363Z,2.80
2022-08-09T03:45:17.710Z,2.40
2022-08-09T03:46:39.564Z,2.63
2022-08-09T03:47:42.093Z,2.28
2022-08-09T03:48:55.123Z,2.25
2022-08-09T03:49:59.040Z,2.42
2022-08-09T03:51:01.508Z,2.45
2022-08-09T03:52:05.871Z,2.30
2022-08-09T03:53:10.717Z,2.22
2022-08-09T03:54:14.883Z,2.20
2022-08-09T03:55:17.920Z,2.25
2022-08-09T03:56:20.108Z,2.58
2022-08-09T03:57:22.410Z,2.38
2022-08-09T03:58:24.188Z,2.22
2022-08-09T03:59:42.855Z,2.10
2022-08-09T04:00:50.444Z,2.47
2022-08-09T04:01:54.280Z,2.00
2022-08-09T04:02:57.444Z,2.47
2022-08-09T04:04:03.853Z,2.67
2022-08-09T04:05:26.585Z,1.88
2022-08-09T04:06:29.813Z,2.38
2022-08-09T04:07:33.621Z,2.15
2022-08-09T04:08:49.801Z,1.92
2022-08-09T04:09:55.684Z,2.53
2022-08-09T04:11:01.426Z,2.55
2022-08-09T04:12:11.825Z,2.17
2022-08-09T04:13:14.066Z,2.58
2022-08-09T04:14:53.446Z,2.50
2022-08-09T04:16:19.390Z,2.47
2022-08-09T04:17:09.322Z,2.22
2022-08-09T04:18:18.193Z,2.53
2022-08-09T04:19:30.294Z,2.47
2022-08-09T04:20:43.220Z,1.98
2022-08-09T04:21:46.516Z,2.30
2022-08-09T04:22:50.240Z,2.20
2022-08-09T04:23:53.724Z,2.10
2022-08-09T04:25:00.188Z,2.35
2022-08-09T04:26:03.808Z,2.33
2022-08-09T04:27:05.660Z,2.20
2022-08-09T04:28:10.727Z,2.47
2022-08-09T04:29:15.555Z,2.00
2022-08-09T04:30:20.947Z,2.10
2022-08-09T04:31:26.419Z,2.72
2022-08-09T04:32:45.849Z,2.38
2022-08-09T04:33:52.471Z,2.47
2022-08-09T04:34:58.676Z,2.58
2022-08-09T04:36:03.559Z,2.75
2022-08-09T04:37:05.456Z,2.80
2022-08-09T04:38:07.281Z,2.50
2022-08-09T04:39:09.096Z,2.60
2022-08-09T04:40:12.136Z,2.63
2022-08-09T04:41:23.584Z,2.42
2022-08-09T04:42:30.286Z,2.33
2022-08-09T04:43:37.740Z,2.70
2022-08-09T04:44:59.820Z,2.80
2022-08-09T04:46:01.835Z,2.60
2022-08-09T04:47:05.929Z,3.13
2022-08-09T04:48:10.320Z,2.85
2022-08-09T04:49:15.043Z,2.90
2022-08-09T04:50:16.941Z,2.67
2022-08-09T04:51:26.622Z,2.60
2022-08-09T04:52:35.339Z,3.10
2022-08-09T04:53:39.794Z,2.55
2022-08-09T04:54:45.205Z,3.20
2022-08-09T04:55:57.498Z,3.08
2022-08-09T04:57:01.154Z,3.05
2022-08-09T04:58:09.616Z,3.10
2022-08-09T04:59:13.137Z,3.00
2022-08-09T05:00:17.938Z,2.78
2022-08-09T05:01:19.890Z,3.10
2022-08-09T05:02:23.826Z,3.00
2022-08-09T05:03:39.940Z,2.72
2022-08-09T05:04:45.291Z,2.97
2022-08-09T05:05:52.569Z,2.65
2022-08-09T05:07:06.537Z,2.92
2022-08-09T05:08:15.196Z,3.20
2022-08-09T05:09:17.088Z,2.83
2022-08-09T05:10:19.178Z,3.10
2022-08-09T05:11:21.108Z,2.90
2022-08-09T05:12:23.046Z,2.83
2022-08-09T05:13:25.039Z,2.80
2022-08-09T05:14:31.486Z,2.85
2022-08-09T05:15:43.055Z,3.03
2022-08-09T05:16:58.776Z,3.17
2022-08-09T05:18:37.820Z,2.67
2022-08-09T05:19:25.744Z,3.10
2022-08-09T05:20:29.955Z,3.15
2022-08-09T05:21:36.476Z,3.08
2022-08-09T05:23:55.319Z,2.65
2022-08-09T05:24:12.434Z,2.90
2022-08-09T05:25:16.455Z,2.83
2022-08-09T05:26:26.489Z,2.70
2022-08-09T05:27:44.399Z,2.85
2022-08-09T05:28:48.587Z,2.90
2022-08-09T05:29:53.996Z,2.60
2022-08-09T05:30:56.072Z,3.45
2022-08-09T05:32:02.645Z,2.80
2022-08-09T05:33:09.450Z,3.40
2022-08-09T05:34:16.883Z,3.15
2022-08-09T05:35:22.085Z,2.85
2022-08-09T05:36:28.773Z,2.90
2022-08-09T05:37:30.885Z,3.05
2022-08-09T05:38:47.013Z,3.53
2022-08-09T05:39:49.660Z,3.05
2022-08-09T05:40:52.151Z,3.10
2022-08-09T05:41:53.980Z,3.03
2022-08-09T05:42:57.662Z,3.13
2022-08-09T05:43:59.943Z,3.58
2022-08-09T05:45:01.732Z,3.22
2022-08-09T05:46:03.593Z,3.10
2022-08-09T05:47:05.951Z,3.05
2022-08-09T05:48:07.795Z,2.70
2022-08-09T05:49:33.964Z,3.05
2022-08-09T05:50:50.588Z,2.70
2022-08-09T05:51:54.840Z,2.47
2022-08-09T05:52:56.996Z,2.60
2022-08-09T05:53:59.698Z,2.83
2022-08-09T05:55:03.198Z,2.80
2022-08-09T05:56:09.404Z,2.70
2022-08-09T05:57:19.162Z,2.35
2022-08-09T05:58:21.249Z,2.70
2022-08-09T05:59:23.161Z,2.70
2022-08-09T06:00:30.697Z,2.78
2022-08-09T06:01:42.886Z,2.97
2022-08-09T06:02:46.540Z,2.80
2022-08-09T06:03:58.569Z,2.70
2022-08-09T06:05:01.110Z,2.90
2022-08-09T06:06:06.043Z,3.08
2022-08-09T06:07:08.618Z,3.08
2022-08-09T06:08:11.450Z,3.38
2022-08-09T06:09:40.388Z,3.50
2022-08-09T06:10:38.233Z,3.00
2022-08-09T06:11:41.028Z,3.25
2022-08-09T06:13:11.655Z,3.42
2022-08-09T06:14:13.862Z,3.50
2022-08-09T06:15:15.709Z,3.17
2022-08-09T06:16:18.067Z,3.38
2022-08-09T06:17:19.860Z,3.60
2022-08-09T06:18:23.949Z,3.55
2022-08-09T06:19:27.627Z,3.58
2022-08-09T06:20:30.177Z,3.17
2022-08-09T06:21:32.074Z,3.60
2022-08-09T06:22:34.500Z,3.30
2022-08-09T06:23:58.206Z,3.33
2022-08-09T06:24:58.622Z,3.22
2022-08-09T06:26:01.453Z,2.95
2022-08-09T06:27:03.404Z,3.38
2022-08-09T06:28:07.720Z,3.38
2022-08-09T06:29:14.964Z,3.22
2022-08-09T06:30:17.432Z,3.38
2022-08-09T06:31:19.732Z,3.42
2022-08-09T06:32:58.900Z,3.50
2022-08-09T06:33:55.426Z,3.30
2022-08-09T06:34:59.836Z,3.30
2022-08-09T06:36:01.609Z,3.33
2022-08-09T06:37:03.735Z,3.17
2022-08-09T06:38:08.834Z,3.13
2022-08-09T06:39:12.399Z,3.35
2022-08-09T06:40:21.782Z,3.80
2022-08-09T06:42:07.776Z,3.60
2022-08-09T06:42:51.249Z,3.50
2022-08-09T06:43:53.327Z,4.05
2022-08-09T06:44:55.555Z,3.25
2022-08-09T06:46:07.908Z,4.25
2022-08-09T06:47:13.756Z,4.05
2022-08-09T06:48:16.832Z,3.95
2022-08-09T06:50:11.496Z,3.83
2022-08-09T06:50:54.525Z,3.78
2022-08-09T06:51:57.686Z,4.50
2022-08-09T06:53:00.924Z,4.25
2022-08-09T06:54:02.740Z,4.10
2022-08-09T06:55:12.804Z,4.07
2022-08-09T06:56:14.820Z,4.03
2022-08-09T06:57:16.985Z,4.35
2022-08-09T06:58:40.785Z,4.10
2022-08-09T07:00:51.002Z,4.75
2022-08-09T07:01:03.614Z,4.43
2022-08-09T07:02:05.970Z,4.25
2022-08-09T07:03:07.980Z,4.07
2022-08-09T07:04:20.036Z,4.22
2022-08-09T07:05:22.384Z,4.10
2022-08-09T07:06:25.606Z,4.65
2022-08-09T07:08:00.883Z,4.15
2022-08-09T07:08:53.555Z,3.97
2022-08-09T07:10:10.468Z,4.25
2022-08-09T07:11:25.207Z,4.07
2022-08-09T07:12:38.787Z,4.07
2022-08-09T07:14:04.120Z,4.38
2022-08-09T07:16:38.930Z,4.22
2022-08-09T07:16:39.286Z,4.18
2022-08-09T07:17:56.185Z,3.88
2022-08-09T07:19:04.011Z,3.85
2022-08-09T07:20:06.560Z,3.97
2022-08-09T07:21:10.954Z,3.85
2022-08-09T07:22:13.310Z,3.88
2022-08-09T07:23:18.940Z,3.53
2022-08-09T07:24:21.545Z,4.13
2022-08-09T07:25:38.994Z,4.15
2022-08-09T07:26:45.404Z,3.78
2022-08-09T07:27:53.255Z,4.03
2022-08-09T07:29:08.424Z,4.00
2022-08-09T07:30:15.392Z,4.43
2022-08-09T07:31:20.113Z,3.88
2022-08-09T07:32:33.375Z,3.70
2022-08-09T07:33:52.831Z,4.00
2022-08-09T07:34:57.758Z,4.47
2022-08-09T07:35:59.816Z,3.78
2022-08-09T07:37:03.678Z,3.70
2022-08-09T07:38:05.651Z,3.80
2022-08-09T07:39:11.670Z,3.78
2022-08-09T07:40:20.211Z,3.97
2022-08-09T07:41:27.121Z,3.95
2022-08-09T07:42:34.992Z,4.13
2022-08-09T07:43:50.087Z,4.05
2022-08-09T07:45:01.515Z,4.20
2022-08-09T07:46:08.482Z,4.10
2022-08-09T07:47:13.432Z,3.60
2022-08-09T07:48:22.635Z,3.92
2022-08-09T07:49:32.092Z,3.80
2022-08-09T07:50:40.590Z,3.75
2022-08-09T07:52:03.451Z,4.25
2022-08-09T07:53:05.373Z,3.80
2022-08-09T07:54:08.653Z,4.25
2022-08-09T07:55:11.496Z,3.80
2022-08-09T07:56:26.876Z,3.63
2022-08-09T07:57:35.605Z,3.80
2022-08-09T07:58:38.206Z,3.83
2022-08-09T07:59:52.190Z,3.97
2022-08-09T08:01:06.741Z,3.80
2022-08-09T08:02:19.223Z,3.92
2022-08-09T08:03:22.122Z,4.40
2022-08-09T08:04:31.194Z,4.13
2022-08-09T08:05:53.565Z,3.67
2022-08-09T08:06:56.433Z,4.20
2022-08-09T08:09:02.633Z,4.60
2022-08-09T08:09:38.664Z,4.47
2022-08-09T08:11:03.515Z,4.40
2022-08-09T08:12:24.193Z,4.25
2022-08-09T08:13:28.759Z,5.00
2022-08-09T08:14:41.989Z,5.45
2022-08-09T08:15:43.981Z,5.63
2022-08-09T08:17:00.388Z,5.65
2022-08-09T08:18:03.705Z,5.20
2022-08-09T08:19:05.601Z,4.88
2022-08-09T08:20:12.730Z,4.43
2022-08-09T08:21:15.395Z,4.68
2022-08-09T08:22:17.443Z,4.68
2022-08-09T08:23:27.343Z,5.25
2022-08-09T08:24:35.398Z,5.28
2022-08-09T08:25:44.312Z,4.97
2022-08-09T08:26:55.988Z,6.22
2022-08-09T08:27:58.930Z,5.97
2022-08-09T08:29:00.763Z,6.13
2022-08-09T08:30:05.491Z,4.80
2022-08-09T08:31:14.178Z,4.60
2022-08-09T08:32:18.943Z,4.32
2022-08-09T08:33:40.816Z,4.43
2022-08-09T08:34:55.421Z,3.78
2022-08-09T08:36:03.462Z,3.95
2022-08-09T08:37:05.773Z,4.18
2022-08-09T08:38:11.531Z,4.05
2022-08-09T08:39:14.060Z,3.55
2022-08-09T08:40:19.488Z,3.40
2022-08-09T08:41:22.297Z,3.97
2022-08-09T08:42:32.155Z,3.58
2022-08-09T08:43:34.741Z,3.47
2022-08-09T08:44:39.520Z,3.83
2022-08-09T08:45:53.704Z,3.30
2022-08-09T08:47:12.349Z,3.28
2022-08-09T08:48:16.834Z,3.55
2022-08-09T08:49:26.814Z,3.47
2022-08-09T08:50:41.359Z,3.28
2022-08-09T08:52:01.904Z,3.70
2022-08-09T08:53:06.730Z,3.45
2022-08-09T08:54:20.114Z,3.72
2022-08-09T08:55:23.427Z,3.15
2022-08-09T08:56:28.404Z,3.00
2022-08-09T08:57:35.505Z,3.47
2022-08-09T08:58:38.518Z,3.17
2022-08-09T08:59:49.636Z,3.30
2022-08-09T09:00:58.278Z,3.40
2022-08-09T09:02:00.333Z,3.05
2022-08-09T09:03:11.634Z,3.40
2022-08-09T09:04:14.370Z,3.42
2022-08-09T09:05:59.020Z,2.95
2022-08-09T09:06:49.652Z,2.58
2022-08-09T09:07:52.835Z,3.28
2022-08-09T09:08:59.471Z,2.60
2022-08-09T09:10:09.111Z,2.92
2022-08-09T09:11:17.156Z,2.92
2022-08-09T09:12:29.123Z,2.53
2022-08-09T09:13:42.081Z,2.53
2022-08-09T09:14:59.308Z,2.70
2022-08-09T09:16:02.064Z,2.33
2022-08-09T09:17:05.963Z,2.47
2022-08-09T09:18:16.017Z,2.40
2022-08-09T09:20:40.738Z,2.40
2022-08-09T09:22:03.727Z,2.03
2022-08-09T09:23:06.312Z,2.20
2022-08-09T09:24:10.300Z,2.00
2022-08-09T09:26:01.105Z,2.10
2022-08-09T09:27:00.884Z,1.92
2022-08-09T09:28:10.670Z,2.40
2022-08-09T09:29:17.021Z,2.28
2022-08-09T09:30:38.251Z,2.05
2022-08-09T09:32:06.349Z,1.90
2022-08-09T09:33:16.350Z,2.05
2022-08-09T09:34:19.726Z,1.85
2022-08-09T09:35:21.544Z,1.92
2022-08-09T09:36:23.335Z,1.65
2022-08-09T09:37:31.813Z,1.80
2022-08-09T09:38:57.002Z,1.73
2022-08-09T09:40:00.165Z,1.80
2022-08-09T09:41:04.704Z,1.92
2022-08-09T09:42:10.820Z,1.80
2022-08-09T09:43:20.751Z,1.50
2022-08-09T09:44:31.608Z,1.83
2022-08-09T09:46:41.783Z,1.50
2022-08-09T09:47:16.818Z,1.50
2022-08-09T09:48:23.597Z,1.77
2022-08-09T09:49:50.007Z,1.70
2022-08-09T09:50:51.550Z,1.38
2022-08-09T09:52:06.011Z,1.80
2022-08-09T09:53:43.679Z,1.45
2022-08-09T09:54:55.244Z,1.45
2022-08-09T09:56:05.382Z,1.42
2022-08-09T09:58:02.278Z,1.27
2022-08-09T09:58:46.709Z,1.50
2022-08-09T09:59:52.254Z,1.60
2022-08-09T10:00:59.698Z,1.70
2022-08-09T10:02:02.440Z,1.20
2022-08-09T10:03:11.605Z,1.33
2022-08-09T10:04:22.893Z,1.35
2022-08-09T10:06:03.675Z,1.40
2022-08-09T10:06:54.861Z,1.40
2022-08-09T10:08:25.876Z,1.30
2022-08-09T10:09:27.629Z,1.27
2022-08-09T10:10:31.569Z,1.10
2022-08-09T10:12:00.194Z,1.13
2022-08-09T10:12:56.167Z,1.30
2022-08-09T10:13:58.835Z,1.20
2022-08-09T10:15:17.620Z,1.30
2022-08-09T10:16:56.852Z,1.27
2022-08-09T10:18:10.724Z,1.10
2022-08-09T10:19:14.021Z,1.15
2022-08-09T10:20:27.341Z,1.20
2022-08-09T10:21:36.037Z,1.00
2022-08-09T10:22:39.481Z,1.23
2022-08-09T10:23:43.379Z,1.20
2022-08-09T10:24:45.420Z,1.23
2022-08-09T10:26:06.123Z,1.30
2022-08-09T10:27:17.109Z,1.20
2022-08-09T10:28:24.552Z,1.10
2022-08-09T10:30:22.784Z,0.95
2022-08-09T10:32:40.351Z,0.90
2022-08-09T10:34:10.570Z,1.08
2022-08-09T10:35:05.302Z,1.38
2022-08-09T10:36:13.019Z,0.90
2022-08-09T10:37:14.837Z,1.25
2022-08-09T10:38:55.238Z,1.30
2022-08-09T10:39:49.374Z,0.88
2022-08-09T10:40:51.811Z,1.10
2022-08-09T10:41:53.898Z,1.20
2022-08-09T10:42:57.232Z,1.17
2022-08-09T10:44:01.884Z,1.33
2022-08-09T10:45:12.033Z,1.13
2022-08-09T10:46:55.590Z,1.10
2022-08-09T10:48:29.815Z,1.08
2022-08-09T10:49:54.241Z,1.30
2022-08-09T10:51:15.020Z,1.25
2022-08-09T10:52:28.070Z,0.90
2022-08-09T10:53:39.664Z,1.30
2022-08-09T10:54:53.274Z,1.20
2022-08-09T10:56:22.639Z,1.10
2022-08-09T10:57:36.374Z,1.17
2022-08-09T10:58:39.845Z,1.20
2022-08-09T10:59:58.058Z,1.42
2022-08-09T11:03:02.903Z,1.30
2022-08-09T11:03:11.527Z,1.38
2022-08-09T11:04:19.873Z,1.30
2022-08-09T11:05:33.026Z,1.10
2022-08-09T11:06:37.688Z,1.00
2022-08-09T11:07:56.633Z,1.10
2022-08-09T11:09:16.005Z,1.13
2022-08-09T11:10:54.371Z,1.10
2022-08-09T11:11:58.696Z,1.00
2022-08-09T11:13:21.687Z,1.40
2022-08-09T11:14:44.008Z,0.90
2022-08-09T11:15:50.752Z,0.90
2022-08-09T11:17:15.920Z,1.10
2022-08-09T11:18:45.126Z,0.80
2022-08-09T11:20:10.668Z,1.05
2022-08-09T11:21:57.381Z,1.00
2022-08-09T11:23:13.692Z,1.30
2022-08-09T11:24:15.843Z,1.00
2022-08-09T11:25:36.154Z,1.15
2022-08-09T11:26:52.191Z,0.70
2022-08-09T11:28:08.405Z,0.90
2022-08-09T11:30:04.455Z,1.00
2022-08-09T11:31:49.668Z,1.00
2022-08-09T11:33:10.483Z,0.90
2022-08-09T11:34:32.517Z,0.90
2022-08-09T11:35:56.936Z,0.80
2022-08-09T11:37:00.846Z,1.00
2022-08-09T11:38:17.716Z,1.08
2022-08-09T11:39:20.551Z,1.10
2022-08-09T11:40:34.005Z,0.90
2022-08-09T11:41:37.890Z,0.73
2022-08-09T11:42:48.729Z,0.80
2022-08-09T11:43:52.177Z,0.80
2022-08-09T11:44:57.251Z,0.80
2022-08-09T11:46:01.637Z,0.75
2022-08-09T11:47:03.581Z,1.02
2022-08-09T11:48:25.163Z,0.88
2022-08-09T11:50:52.601Z,0.98
2022-08-09T11:52:36.722Z,0.90
2022-08-09T11:53:20.760Z,0.90
2022-08-09T11:54:29.642Z,1.10
2022-08-09T11:55:53.471Z,0.70
2022-08-09T11:57:59.697Z,1.00
2022-08-09T11:59:00.351Z,0.90
2022-08-09T12:00:15.828Z,0.85
2022-08-09T12:02:01.130Z,0.70
2022-08-09T12:02:53.123Z,0.77
2022-08-09T12:04:00.842Z,0.60
2022-08-09T12:05:02.948Z,0.90
2022-08-09T12:06:26.865Z,0.80
2022-08-09T12:07:42.336Z,0.60
2022-08-09T12:08:49.184Z,0.80
2022-08-09T12:09:51.357Z,0.70
2022-08-09T12:10:58.358Z,0.60
2022-08-09T12:12:11.980Z,0.60
2022-08-09T12:14:07.165Z,0.90
2022-08-09T12:15:04.389Z,0.73
2022-08-09T12:16:30.579Z,0.80
2022-08-09T12:17:43.406Z,0.82
2022-08-09T12:18:53.853Z,0.70
2022-08-09T12:19:59.370Z,0.65
2022-08-09T12:21:04.423Z,0.70
2022-08-09T12:22:27.081Z,0.75
2022-08-09T12:23:56.454Z,0.70
2022-08-09T12:25:15.263Z,0.50
2022-08-09T12:26:19.525Z,0.57
2022-08-09T12:28:59.794Z,0.52
2022-08-09T12:29:12.229Z,0.70
2022-08-09T12:30:36.405Z,0.60
2022-08-09T12:32:02.406Z,0.65
2022-08-09T12:33:02.920Z,0.50
2022-08-09T12:34:05.335Z,0.57
2022-08-09T12:35:12.423Z,0.63
2022-08-09T12:36:31.894Z,0.60
2022-08-09T12:37:44.154Z,0.85
2022-08-09T12:38:54.091Z,0.52
2022-08-09T12:40:00.983Z,0.70
2022-08-09T12:41:03.441Z,0.50
2022-08-09T12:42:09.109Z,0.68
2022-08-09T12:43:11.003Z,0.65
2022-08-09T12:44:15.342Z,0.70
2022-08-09T12:45:32.779Z,0.60
2022-08-09T12:46:39.896Z,0.70
2022-08-09T12:47:50.095Z,0.65
2022-08-09T12:48:55.983Z,0.55
2022-08-09T12:50:16.214Z,0.73
2022-08-09T12:51:40.452Z,0.43
2022-08-09T12:53:07.841Z,0.70
2022-08-09T12:54:10.492Z,0.60
2022-08-09T12:56:14.002Z,0.55
2022-08-09T12:56:51.401Z,0.73
2022-08-09T12:57:56.487Z,0.50
2022-08-09T12:59:20.594Z,0.63
2022-08-09T13:00:25.439Z,0.55
2022-08-09T13:01:28.367Z,0.45
2022-08-09T13:02:48.571Z,0.50
2022-08-09T13:04:08.008Z,0.50
2022-08-09T13:05:52.339Z,0.40
2022-08-09T13:07:19.435Z,0.57
2022-08-09T13:08:39.685Z,0.70
2022-08-09T13:09:43.325Z,0.57
2022-08-09T13:10:58.743Z,0.50
2022-08-09T13:12:04.322Z,0.50
2022-08-09T13:13:09.921Z,0.43
2022-08-09T13:14:41.301Z,0.60
2022-08-09T13:15:58.692Z,0.50
2022-08-09T13:17:16.032Z,0.60
2022-08-09T13:18:27.327Z,0.50
2022-08-09T13:20:09.798Z,0.60
2022-08-09T13:22:33.658Z,0.50
2022-08-09T13:22:37.765Z,0.50
2022-08-09T13:24:07.270Z,0.60
2022-08-09T13:25:07.928Z,0.50
2022-08-09T13:26:42.326Z,0.77
2022-08-09T13:27:54.413Z,0.50
2022-08-09T13:29:06.471Z,0.40
2022-08-09T13:30:49.340Z,0.50
2022-08-09T13:32:14.965Z,0.40
2022-08-09T13:33:23.639Z,0.75
2022-08-09T13:34:30.393Z,0.50
2022-08-09T13:36:23.439Z,0.50
2022-08-09T13:37:00.832Z,0.50
2022-08-09T13:38:04.716Z,0.40
2022-08-09T13:41:19.154Z,0.50
2022-08-09T13:41:55.683Z,0.50
2022-08-09T13:42:11.913Z,0.60
2022-08-09T13:43:15.693Z,0.70
2022-08-09T13:44:17.984Z,0.40
2022-08-09T13:45:20.577Z,0.60
2022-08-09T13:47:16.190Z,0.30
2022-08-09T13:47:52.750Z,0.60
2022-08-09T13:49:00.310Z,0.47
2022-08-09T13:50:12.605Z,0.40
2022-08-09T13:51:20.153Z,0.45
2022-08-09T13:52:23.260Z,0.50
2022-08-09T13:53:41.335Z,0.55
2022-08-09T13:55:00.978Z,0.70
2022-08-09T13:56:07.282Z,0.50
2022-08-09T13:57:14.528Z,0.60
2022-08-09T13:58:35.719Z,0.40
2022-08-09T13:59:41.986Z,0.40
2022-08-09T14:00:50.645Z,0.50
2022-08-09T14:01:56.253Z,0.55
2022-08-09T14:04:01.313Z,0.60
2022-08-09T14:04:27.588Z,0.50
2022-08-09T14:05:58.142Z,0.50
2022-08-09T14:06:59.767Z,0.52
2022-08-09T14:08:06.481Z,0.30
2022-08-09T14:09:09.295Z,0.50
2022-08-09T14:10:17.172Z,0.50
2022-08-09T14:11:46.857Z,0.40
2022-08-09T14:12:49.136Z,0.47
2022-08-09T14:14:15.361Z,0.45
2022-08-09T14:16:06.983Z,0.50
2022-08-09T14:16:34.865Z,0.40
2022-08-09T14:18:16.647Z,0.40
2022-08-09T14:19:00.753Z,0.40
2022-08-09T14:20:05.631Z,0.50
2022-08-09T14:21:08.992Z,0.50
2022-08-09T14:22:10.878Z,0.50
2022-08-09T14:23:20.071Z,0.70
2022-08-09T14:24:32.071Z,0.35
2022-08-09T14:25:42.848Z,0.40
2022-08-09T14:26:51.334Z,0.30
2022-08-09T14:27:58.211Z,0.60
2022-08-09T14:29:07.931Z,0.30
2022-08-09T14:30:36.299Z,0.40
2022-08-09T14:31:50.168Z,0.60
2022-08-09T14:32:55.256Z,0.43
2022-08-09T14:33:58.821Z,0.50
2022-08-09T14:35:00.734Z,0.57
2022-08-09T14:36:19.746Z,0.40
2022-08-09T14:37:28.387Z,0.40
2022-08-09T14:38:30.510Z,0.50
2022-08-09T14:39:45.355Z,0.40
2022-08-09T14:41:04.479Z,0.50
2022-08-09T14:42:12.425Z,0.55
2022-08-09T14:43:18.457Z,0.60
2022-08-09T14:44:32.548Z,0.50
2022-08-09T14:46:54.365Z,0.50
2022-08-09T14:47:12.581Z,0.43
2022-08-09T14:48:26.928Z,0.55
2022-08-09T14:49:28.805Z,0.50
2022-08-09T14:50:37.304Z,0.50
2022-08-09T14:51:42.125Z,0.60
2022-08-09T14:52:50.135Z,0.68
2022-08-09T14:53:52.712Z,0.40
2022-08-09T14:54:54.669Z,0.60
2022-08-09T14:55:56.529Z,0.50
2022-08-09T14:56:59.260Z,0.50
2022-08-09T14:58:03.661Z,0.50
2022-08-09T14:59:06.372Z,0.40
2022-08-09T15:00:16.597Z,0.50
2022-08-09T15:01:20.618Z,0.60
2022-08-09T15:02:22.479Z,0.38
2022-08-09T15:03:26.196Z,0.50
2022-08-09T15:04:28.264Z,0.60
2022-08-09T15:05:31.240Z,0.60
2022-08-09T15:06:33.144Z,0.68
2022-08-09T15:07:36.061Z,0.50
2022-08-09T15:08:38.899Z,0.50
2022-08-09T15:10:07.138Z,0.40
2022-08-09T15:11:07.126Z,0.80
2022-08-09T15:12:09.543Z,0.45
2022-08-09T15:13:13.276Z,0.50
2022-08-09T15:14:15.484Z,0.50
2022-08-09T15:15:22.073Z,0.50
2022-08-09T15:16:29.707Z,0.70
2022-08-09T15:17:33.140Z,0.70
2022-08-09T15:18:44.688Z,0.50
2022-08-09T15:19:59.074Z,0.55
2022-08-09T15:21:56.829Z,0.38
2022-08-09T15:22:26.227Z,0.55
2022-08-09T15:24:03.093Z,0.65
2022-08-09T15:24:50.189Z,0.50
2022-08-09T15:25:55.635Z,0.60
2022-08-09T15:26:57.918Z,0.45
2022-08-09T15:28:03.006Z,0.47
2022-08-09T15:29:05.451Z,0.60
2022-08-09T15:31:00.738Z,0.80
2022-08-09T15:31:41.871Z,0.50
2022-08-09T15:32:45.715Z,0.50
2022-08-09T15:34:18.213Z,0.40
2022-08-09T15:35:18.697Z,0.30
2022-08-09T15:36:32.387Z,0.52
2022-08-09T15:38:04.044Z,0.60
2022-08-09T15:39:00.918Z,0.50
2022-08-09T15:40:20.003Z,0.40
2022-08-09T15:41:22.412Z,0.60
2022-08-09T15:42:24.253Z,0.40
2022-08-09T15:43:36.733Z,0.40
2022-08-09T15:44:39.207Z,0.50
2022-08-09T15:45:51.877Z,0.40
2022-08-09T15:47:05.189Z,0.55